createdAt,value
2022-12-14T00:01:28.279Z,12.57
2022-12-14T00:03:56.448Z,12.85
2022-12-14T00:06:26.201Z,13.30
2022-12-14T00:08:55.680Z,14.23
2022-12-14T00:11:22.970Z,13.20
2022-12-14T00:13:57.586Z,14.18
2022-12-14T00:16:27.538Z,14.43
2022-12-14T00:18:56.262Z,12.50
2022-12-14T00:21:23.805Z,12.75
2022-12-14T00:23:52.442Z,13.50
2022-12-14T00:26:25.340Z,15.05
2022-12-14T00:28:54.433Z,12.85
2022-12-14T00:31:22.876Z,12.52
2022-12-14T00:33:50.776Z,12.05
2022-12-14T00:36:17.816Z,11.68
2022-12-14T00:38:45.082Z,12.98
2022-12-14T00:41:12.552Z,11.82
2022-12-14T00:43:39.777Z,13.43
2022-12-14T00:46:07.302Z,13.50
2022-12-14T00:48:34.472Z,12.52
2022-12-14T00:51:01.554Z,12.35
2022-12-14T00:53:28.525Z,11.63
2022-12-14T00:55:55.618Z,13.85
2022-12-14T00:58:24.889Z,12.45
2022-12-14T01:01:06.792Z,12.45
2022-12-14T01:03:34.440Z,11.20
2022-12-14T01:06:01.622Z,13.75
2022-12-14T01:08:35.329Z,12.25
2022-12-14T01:11:08.331Z,12.13
2022-12-14T01:13:37.182Z,14.77
2022-12-14T01:16:09.269Z,15.23
2022-12-14T01:18:38.629Z,13.48
2022-12-14T01:21:15.753Z,12.30
2022-12-14T01:23:44.178Z,13.52
2022-12-14T01:26:15.586Z,14.13
2022-12-14T01:28:42.776Z,13.60
2022-12-14T01:31:15.062Z,14.85
2022-12-14T01:33:42.528Z,12.98
2022-12-14T01:36:11.950Z,13.93
2022-12-14T01:38:39.288Z,13.35
2022-12-14T01:41:07.521Z,12.55
2022-12-14T01:43:49.675Z,12.30
2022-12-14T01:46:40.359Z,13.00
2022-12-14T01:49:16.685Z,13.77
2022-12-14T01:51:48.003Z,13.55
2022-12-14T01:54:16.079Z,14.55
2022-12-14T01:56:45.670Z,13.63
2022-12-14T01:59:21.117Z,14.60
2022-12-14T02:01:48.848Z,13.65
2022-12-14T02:04:18.618Z,12.88
2022-12-14T02:06:49.254Z,12.45
2022-12-14T02:09:23.593Z,12.15
2022-12-14T02:12:04.334Z,14.38
2022-12-14T02:14:31.485Z,12.35
2022-12-14T02:16:58.458Z,12.88
2022-12-14T02:19:25.444Z,14.32
2022-12-14T02:22:35.809Z,13.20
2022-12-14T02:25:39.164Z,12.50
2022-12-14T02:28:27.432Z,12.90
2022-12-14T02:31:33.212Z,14.88
2022-12-14T02:34:18.304Z,12.75
2022-12-14T02:37:11.198Z,12.07
2022-12-14T02:40:10.479Z,12.63
2022-12-14T02:43:01.189Z,12.93
2022-12-14T02:45:59.892Z,13.35
2022-12-14T02:48:32.439Z,12.80
2022-12-14T02:51:27.368Z,14.32
2022-12-14T02:54:03.576Z,14.40
2022-12-14T02:56:37.444Z,13.15
2022-12-14T02:59:07.859Z,13.25
2022-12-14T03:01:36.761Z,12.45
2022-12-14T03:04:04.030Z,12.65
2022-12-14T03:06:31.039Z,13.02
2022-12-14T03:09:18.313Z,12.23
2022-12-14T03:12:07.281Z,11.80
2022-12-14T03:14:36.596Z,14.13
2022-12-14T03:17:19.239Z,9.00
2022-12-14T03:20:08.068Z,12.60
2022-12-14T03:22:47.500Z,11.23
2022-12-14T03:25:18.968Z,11.55
2022-12-14T03:27:58.509Z,11.20
2022-12-14T03:30:51.286Z,12.02
2022-12-14T03:33:17.932Z,13.02
2022-12-14T03:36:16.215Z,12.07
2022-12-14T03:38:47.819Z,12.70
2022-12-14T03:41:31.240Z,12.68
2022-12-14T03:44:07.362Z,12.73
2022-12-14T03:46:44.856Z,12.32
2022-12-14T03:49:47.090Z,10.93
2022-12-14T03:52:31.855Z,12.27
2022-12-14T03:55:12.987Z,12.85
2022-12-14T03:58:10.423Z,13.25
2022-12-14T04:00:45.908Z,13.85
2022-12-14T04:03:20.372Z,13.95
2022-12-14T04:06:09.337Z,15.02
2022-12-14T04:08:51.965Z,12.67
2022-12-14T04:11:39.641Z,11.55
2022-12-14T04:14:35.189Z,13.77
2022-12-14T04:17:26.254Z,17.65
2022-12-14T04:20:05.186Z,13.02
2022-12-14T04:22:37.786Z,13.87
2022-12-14T04:25:31.420Z,15.27
2022-12-14T04:28:01.896Z,14.13
2022-12-14T04:30:32.051Z,14.98
2022-12-14T04:33:27.082Z,12.90
2022-12-14T04:35:58.246Z,12.35
2022-12-14T04:38:37.883Z,14.95
2022-12-14T04:41:11.593Z,12.25
2022-12-14T04:43:44.475Z,12.45
2022-12-14T04:46:24.481Z,13.65
2022-12-14T04:49:19.990Z,12.65
2022-12-14T04:51:53.530Z,12.05
2022-12-14T04:54:27.943Z,12.32
2022-12-14T04:57:08.843Z,12.38
2022-12-14T04:59:37.223Z,14.38
2022-12-14T05:02:06.834Z,13.10
2022-12-14T05:05:16.409Z,12.73
2022-12-14T05:07:53.938Z,13.55
2022-12-14T05:10:34.622Z,12.32
2022-12-14T05:13:10.763Z,13.77
2022-12-14T05:15:48.193Z,13.65
2022-12-14T05:18:15.551Z,16.98
2022-12-14T05:20:42.504Z,16.02
2022-12-14T05:23:09.852Z,15.93
2022-12-14T05:25:36.616Z,18.83
2022-12-14T05:28:04.023Z,19.40
2022-12-14T05:30:30.900Z,16.00
2022-12-14T05:32:57.777Z,14.55
2022-12-14T05:35:24.819Z,14.77
2022-12-14T05:37:51.916Z,14.48
2022-12-14T05:40:18.962Z,16.33
2022-12-14T05:42:48.694Z,17.33
2022-12-14T05:45:19.136Z,15.23
2022-12-14T05:47:46.282Z,14.68
2022-12-14T05:50:13.234Z,15.05
2022-12-14T05:52:40.281Z,15.05
2022-12-14T05:55:07.723Z,16.35
2022-12-14T05:57:34.350Z,14.90
2022-12-14T06:00:01.007Z,14.65
2022-12-14T06:02:28.129Z,18.77
2022-12-14T06:04:55.117Z,15.95
2022-12-14T06:07:27.522Z,16.75
2022-12-14T06:09:54.986Z,15.55
2022-12-14T06:12:22.548Z,15.43
2022-12-14T06:14:49.681Z,15.85
2022-12-14T06:17:16.495Z,15.02
2022-12-14T06:19:50.066Z,14.48
2022-12-14T06:22:18.409Z,15.30
2022-12-14T06:24:45.652Z,15.65
2022-12-14T06:27:12.461Z,15.20
2022-12-14T06:29:39.128Z,15.82
2022-12-14T06:32:06.612Z,14.35
2022-12-14T06:34:38.457Z,14.93
2022-12-14T06:37:06.824Z,14.30
2022-12-14T06:39:33.872Z,15.68
2022-12-14T06:42:00.909Z,15.40
2022-12-14T06:44:28.031Z,13.88
2022-12-14T06:46:55.691Z,16.10
2022-12-14T06:49:22.865Z,15.50
2022-12-14T06:51:50.295Z,14.85
2022-12-14T06:54:18.371Z,24.05
2022-12-14T06:56:47.069Z,17.90
2022-12-14T06:59:15.177Z,16.38
2022-12-14T07:01:42.424Z,15.88
2022-12-14T07:04:10.176Z,15.20
2022-12-14T07:06:41.208Z,15.63
2022-12-14T07:09:13.830Z,15.80
2022-12-14T07:11:42.090Z,15.82
2022-12-14T07:14:15.896Z,17.90
2022-12-14T07:16:48.244Z,21.00
2022-12-14T07:19:16.781Z,20.05
2022-12-14T07:21:44.615Z,16.55
2022-12-14T07:24:12.532Z,17.27
2022-12-14T07:26:39.583Z,14.45
2022-12-14T07:29:09.161Z,15.40
2022-12-14T07:31:36.273Z,16.25
2022-12-14T07:34:04.368Z,15.80
2022-12-14T07:36:32.866Z,16.38
2022-12-14T07:39:00.290Z,15.30
2022-12-14T07:41:31.015Z,16.70
2022-12-14T07:43:59.940Z,16.40
2022-12-14T07:46:30.385Z,16.97
2022-12-14T07:48:58.437Z,17.35
2022-12-14T07:51:32.296Z,16.95
2022-12-14T07:54:00.861Z,18.35
2022-12-14T07:56:32.804Z,16.30
2022-12-14T07:59:05.040Z,17.27
2022-12-14T08:01:36.943Z,16.63
2022-12-14T08:04:13.467Z,16.02
2022-12-14T08:06:43.038Z,17.60
2022-12-14T08:09:11.843Z,18.33
2022-12-14T08:11:39.978Z,17.60
2022-12-14T08:14:11.249Z,16.88
2022-12-14T08:16:38.278Z,17.05
2022-12-14T08:19:05.510Z,17.50
2022-12-14T08:21:38.316Z,16.35
2022-12-14T08:24:05.296Z,20.42
2022-12-14T08:26:36.024Z,20.20
2022-12-14T08:29:05.239Z,17.38
2022-12-14T08:31:32.640Z,18.23
2022-12-14T08:34:01.932Z,16.85
2022-12-14T08:36:30.914Z,16.15
2022-12-14T08:38:59.555Z,17.53
2022-12-14T08:41:27.754Z,17.15
2022-12-14T08:43:57.148Z,18.98
2022-12-14T08:46:25.925Z,19.83
2022-12-14T08:48:58.943Z,18.58
2022-12-14T08:51:28.535Z,18.73
2022-12-14T08:53:56.368Z,20.70
2022-12-14T08:56:26.748Z,20.55
2022-12-14T08:58:53.987Z,19.17
2022-12-14T09:01:28.359Z,18.73
2022-12-14T09:04:07.635Z,18.33
2022-12-14T09:06:38.254Z,18.05
2022-12-14T09:09:15.738Z,17.75
2022-12-14T09:11:44.876Z,17.65
2022-12-14T09:14:11.723Z,17.58
2022-12-14T09:16:39.162Z,17.92
2022-12-14T09:19:06.156Z,17.20
2022-12-14T09:21:34.961Z,18.25
2022-12-14T09:24:01.867Z,18.50
2022-12-14T09:26:29.678Z,19.52
2022-12-14T09:28:58.114Z,18.83
2022-12-14T09:31:26.762Z,18.70
2022-12-14T09:33:56.644Z,17.88
2022-12-14T09:38:57.342Z,18.73
2022-12-14T09:41:36.374Z,18.70
2022-12-14T09:44:05.994Z,21.23
2022-12-14T09:46:41.723Z,20.25
2022-12-14T09:49:25.971Z,21.75
2022-12-14T09:51:57.291Z,21.40
2022-12-14T09:54:29.374Z,20.60
2022-12-14T09:57:01.132Z,19.48
2022-12-14T09:59:30.299Z,18.23
2022-12-14T10:02:30.549Z,17.80
2022-12-14T10:05:11.873Z,21.27
2022-12-14T10:08:05.860Z,17.58
2022-12-14T10:11:14.923Z,20.25
2022-12-14T10:14:02.099Z,20.48
2022-12-14T10:16:51.787Z,21.38
2022-12-14T10:19:35.222Z,20.90
2022-12-14T10:22:08.800Z,25.20
2022-12-14T10:24:45.962Z,29.75
2022-12-14T10:27:22.664Z,27.88
2022-12-14T10:30:08.723Z,24.98
2022-12-14T10:32:40.108Z,21.13
2022-12-14T10:35:24.145Z,21.08
2022-12-14T10:38:17.735Z,20.55
2022-12-14T10:40:53.653Z,19.95
2022-12-14T10:43:39.269Z,16.25
2022-12-14T10:46:22.676Z,18.42
2022-12-14T10:48:54.381Z,18.23
2022-12-14T10:51:42.447Z,18.23
2022-12-14T10:54:28.036Z,17.48
2022-12-14T10:56:55.513Z,19.15
2022-12-14T10:59:27.443Z,18.48
2022-12-14T11:02:08.076Z,17.00
2022-12-14T11:04:59.921Z,19.15
2022-12-14T11:07:38.900Z,18.58
2022-12-14T11:10:32.564Z,19.47
2022-12-14T11:13:01.322Z,21.40
2022-12-14T11:15:39.287Z,20.40
2022-12-14T11:18:30.628Z,22.75
2022-12-14T11:21:05.151Z,19.67
2022-12-14T11:23:40.180Z,18.52
2022-12-14T11:26:20.933Z,17.98
2022-12-14T11:28:50.675Z,18.42
2022-12-14T11:31:43.038Z,18.80
2022-12-14T11:34:31.340Z,17.77
2022-12-14T11:37:11.588Z,19.10
2022-12-14T11:39:42.699Z,17.75
2022-12-14T11:42:21.691Z,16.63
2022-12-14T11:44:51.179Z,15.90
2022-12-14T11:47:29.140Z,14.80
2022-12-14T11:49:57.724Z,14.70
2022-12-14T11:52:40.797Z,17.17
2022-12-14T11:55:18.177Z,14.40
2022-12-14T11:58:01.256Z,16.58
2022-12-14T12:00:31.378Z,16.45
2022-12-14T12:03:06.290Z,17.80
2022-12-14T12:05:40.809Z,14.93
2022-12-14T12:08:29.102Z,15.27
2022-12-14T12:11:02.278Z,15.43
2022-12-14T12:13:31.355Z,15.27
2022-12-14T12:16:14.740Z,16.80
2022-12-14T12:18:46.875Z,16.77
2022-12-14T12:21:28.469Z,20.58
2022-12-14T12:24:21.409Z,16.05
2022-12-14T12:26:55.341Z,16.10
2022-12-14T12:29:46.562Z,18.65
2022-12-14T12:32:26.488Z,21.42
2022-12-14T12:37:43.491Z,16.02
2022-12-14T12:40:30.406Z,18.88
2022-12-14T12:43:17.081Z,17.55
2022-12-14T12:45:59.715Z,16.38
2022-12-14T12:48:33.653Z,16.77
2022-12-14T12:51:05.054Z,15.32
2022-12-14T12:53:41.215Z,16.92
2022-12-14T12:56:17.072Z,16.27
2022-12-14T12:58:52.416Z,15.63
2022-12-14T13:01:41.209Z,20.25
2022-12-14T13:04:20.550Z,20.05
2022-12-14T13:07:06.316Z,17.85
2022-12-14T13:09:43.517Z,13.55
2022-12-14T13:12:38.398Z,19.95
2022-12-14T13:15:28.719Z,16.20
2022-12-14T13:19:04.446Z,17.38
2022-12-14T13:21:49.858Z,18.50
2022-12-14T13:24:20.514Z,15.95
2022-12-14T13:27:25.199Z,15.70
2022-12-14T13:30:01.104Z,15.65
2022-12-14T13:33:03.292Z,15.45
2022-12-14T13:35:51.527Z,16.23
2022-12-14T13:38:45.826Z,15.98
2022-12-14T13:41:31.709Z,17.70
2022-12-14T13:44:34.718Z,14.63
2022-12-14T13:47:11.666Z,18.27
2022-12-14T13:49:40.625Z,15.38
2022-12-14T13:52:30.027Z,16.00
2022-12-14T13:54:58.612Z,16.77
2022-12-14T13:57:27.062Z,16.98
2022-12-14T13:59:58.692Z,16.48
2022-12-14T14:02:31.990Z,19.70
2022-12-14T14:05:20.195Z,15.77
2022-12-14T14:07:56.152Z,16.83
2022-12-14T14:10:34.463Z,20.52
2022-12-14T14:13:27.590Z,18.63
2022-12-14T14:16:27.491Z,18.42
2022-12-14T14:18:57.741Z,17.08
2022-12-14T14:21:52.488Z,16.73
2022-12-14T14:24:27.613Z,17.88
2022-12-14T14:27:00.881Z,14.00
2022-12-14T14:29:30.012Z,19.00
2022-12-14T14:32:06.513Z,17.38
2022-12-14T14:35:01.119Z,18.58
2022-12-14T14:37:32.127Z,21.55
2022-12-14T14:40:18.659Z,16.45
2022-12-14T14:43:05.705Z,17.40
2022-12-14T14:45:50.164Z,18.30
2022-12-14T14:48:32.327Z,20.10
2022-12-14T14:51:26.649Z,20.27
2022-12-14T14:57:55.472Z,18.33
2022-12-14T15:00:23.043Z,18.02
2022-12-14T15:02:53.112Z,20.40
2022-12-14T15:05:43.156Z,18.58
2022-12-14T15:08:37.047Z,19.45
2022-12-14T15:11:14.419Z,20.45
2022-12-14T15:14:16.572Z,18.10
2022-12-14T15:16:45.681Z,21.33
2022-12-14T15:19:33.407Z,19.42
2022-12-14T15:22:08.013Z,19.60
2022-12-14T15:24:40.024Z,19.58
2022-12-14T15:27:29.990Z,21.83
2022-12-14T15:30:06.485Z,20.23
2022-12-14T15:32:33.653Z,21.27
2022-12-14T15:35:07.556Z,20.58
2022-12-14T15:37:54.716Z,20.35
2022-12-14T15:40:30.486Z,22.10
2022-12-14T15:43:03.731Z,20.25
2022-12-14T15:45:40.792Z,22.20
2022-12-14T15:48:23.033Z,20.88
2022-12-14T15:50:55.960Z,21.17
2022-12-14T15:53:43.321Z,20.98
2022-12-14T15:56:46.688Z,22.38
2022-12-14T15:59:32.889Z,21.75
2022-12-14T16:02:43.880Z,21.75
2022-12-14T16:05:17.490Z,21.95
2022-12-14T16:07:52.291Z,22.58
2022-12-14T16:10:32.809Z,22.25
2022-12-14T16:15:32.752Z,20.67
2022-12-14T16:18:02.608Z,22.48
2022-12-14T16:20:54.822Z,22.75
2022-12-14T16:23:45.527Z,22.75
2022-12-14T16:26:16.097Z,21.25
2022-12-14T16:28:44.072Z,22.08
2022-12-14T16:31:24.143Z,20.25
2022-12-14T16:34:15.654Z,19.67
2022-12-14T16:36:56.235Z,20.00
2022-12-14T16:39:45.210Z,19.83
2022-12-14T16:42:26.235Z,20.90
2022-12-14T16:44:54.074Z,19.70
2022-12-14T16:47:20.953Z,20.73
2022-12-14T16:49:51.931Z,20.17
2022-12-14T16:52:34.902Z,19.58
2022-12-14T16:55:18.384Z,18.63
2022-12-14T16:57:48.125Z,17.73
2022-12-14T17:00:27.248Z,19.55
2022-12-14T17:03:23.034Z,20.98
2022-12-14T17:05:56.416Z,20.58
2022-12-14T17:08:23.423Z,20.20
2022-12-14T17:10:54.179Z,21.98
2022-12-14T17:13:22.960Z,21.55
2022-12-14T17:16:01.889Z,20.30
2022-12-14T17:18:33.145Z,24.03
2022-12-14T17:21:02.057Z,23.92
2022-12-14T17:23:29.862Z,21.57
2022-12-14T17:25:57.229Z,22.35
2022-12-14T17:28:27.960Z,24.08
2022-12-14T17:30:58.301Z,25.27
2022-12-14T17:33:27.476Z,23.45
2022-12-14T17:35:55.189Z,23.48
2022-12-14T17:38:23.731Z,19.67
2022-12-14T17:40:53.750Z,22.23
2022-12-14T17:43:24.850Z,22.45
2022-12-14T17:45:52.748Z,21.90
2022-12-14T17:48:22.448Z,19.65
2022-12-14T17:50:51.234Z,23.42
2022-12-14T17:53:30.444Z,14.65
2022-12-14T17:55:58.666Z,22.38
2022-12-14T17:58:25.747Z,22.00
2022-12-14T18:01:01.800Z,22.67
2022-12-14T18:03:36.269Z,21.67
2022-12-14T18:06:14.644Z,21.15
2022-12-14T18:08:45.024Z,21.35
2022-12-14T18:11:21.582Z,20.10
2022-12-14T18:13:49.013Z,20.63
2022-12-14T18:16:21.199Z,20.50
2022-12-14T18:18:51.001Z,22.10
2022-12-14T18:21:22.475Z,24.00
2022-12-14T18:23:52.171Z,23.50
2022-12-14T18:26:20.930Z,24.17
2022-12-14T18:28:50.979Z,21.80
2022-12-14T18:34:06.397Z,20.38
2022-12-14T18:36:39.844Z,24.50
2022-12-14T18:39:07.407Z,24.08
2022-12-14T18:41:35.365Z,24.63
2022-12-14T18:44:07.752Z,26.98
2022-12-14T18:46:39.149Z,24.35
2022-12-14T18:49:05.970Z,24.00
2022-12-14T18:51:33.813Z,28.58
2022-12-14T18:54:01.005Z,27.23
2022-12-14T18:56:29.098Z,25.45
2022-12-14T18:59:03.191Z,24.00
2022-12-14T19:01:29.931Z,22.75
2022-12-14T19:03:56.851Z,21.30
2022-12-14T19:06:45.719Z,24.85
2022-12-14T19:09:14.186Z,22.17
2022-12-14T19:11:42.063Z,21.27
2022-12-14T19:14:15.038Z,22.38
2022-12-14T19:16:42.779Z,22.40
2022-12-14T19:19:11.519Z,23.02
2022-12-14T19:21:39.385Z,21.83
2022-12-14T19:24:08.636Z,21.42
2022-12-14T19:26:38.865Z,21.85
2022-12-14T19:29:05.880Z,23.08
2022-12-14T19:31:34.960Z,22.00
2022-12-14T19:34:01.936Z,22.27
2022-12-14T19:36:31.834Z,20.70
2022-12-14T19:41:25.539Z,21.27
2022-12-14T19:43:58.616Z,21.05
2022-12-14T19:46:26.774Z,22.00
2022-12-14T19:48:57.302Z,22.45
2022-12-14T19:51:23.961Z,23.02
2022-12-14T19:53:53.801Z,25.42
2022-12-14T19:58:50.119Z,27.25
2022-12-14T20:01:17.921Z,26.88
2022-12-14T20:03:46.198Z,23.92
2022-12-14T20:06:15.335Z,26.52
2022-12-14T20:08:42.411Z,24.17
2022-12-14T20:11:11.690Z,27.50
2022-12-14T20:13:45.686Z,26.50
2022-12-14T20:16:17.035Z,24.60
2022-12-14T20:18:45.454Z,26.05
2022-12-14T20:21:18.526Z,26.83
2022-12-14T20:23:54.055Z,31.40
2022-12-14T20:26:23.005Z,29.05
2022-12-14T20:29:00.841Z,30.60
2022-12-14T20:31:31.684Z,33.90
2022-12-14T20:34:04.111Z,45.10
2022-12-14T20:36:34.075Z,36.25
2022-12-14T20:39:03.115Z,23.30
2022-12-14T20:41:35.034Z,22.25
2022-12-14T20:44:06.083Z,20.02
2022-12-14T20:46:36.408Z,26.38
2022-12-14T20:49:07.795Z,24.42
2022-12-14T20:51:38.283Z,24.35
2022-12-14T20:54:08.351Z,24.98
2022-12-14T20:56:36.275Z,21.95
2022-12-14T20:59:03.949Z,24.67
2022-12-14T21:01:31.231Z,24.27
2022-12-14T21:04:01.194Z,24.35
2022-12-14T21:06:30.639Z,23.23
2022-12-14T21:09:05.255Z,21.15
2022-12-14T21:11:53.115Z,23.55
2022-12-14T21:14:22.878Z,20.75
2022-12-14T21:16:49.855Z,21.90
2022-12-14T21:19:36.228Z,22.65
2022-12-14T21:22:10.579Z,21.52
2022-12-14T21:25:01.795Z,23.50
2022-12-14T21:27:32.607Z,24.17
2022-12-14T21:30:03.259Z,22.38
2022-12-14T21:32:38.251Z,25.27
2022-12-14T21:35:05.864Z,26.67
2022-12-14T21:37:43.166Z,26.05
2022-12-14T21:40:30.404Z,27.42
2022-12-14T21:42:58.172Z,28.75
2022-12-14T21:45:26.141Z,30.63
2022-12-14T21:47:53.273Z,28.08
2022-12-14T21:50:21.359Z,28.52
2022-12-14T21:52:49.235Z,27.52
2022-12-14T21:55:21.927Z,30.05
2022-12-14T21:58:07.443Z,27.63
2022-12-14T22:00:34.114Z,32.38
2022-12-14T22:03:02.868Z,32.22
2022-12-14T22:05:30.643Z,32.07
2022-12-14T22:08:00.050Z,33.28
2022-12-14T22:10:26.798Z,32.63
2022-12-14T22:12:53.860Z,32.20
2022-12-14T22:15:22.577Z,30.75
2022-12-14T22:17:51.654Z,32.85
2022-12-14T22:20:19.728Z,29.77
2022-12-14T22:22:46.561Z,28.52
2022-12-14T22:25:13.357Z,29.20
2022-12-14T22:27:41.085Z,26.90
2022-12-14T22:30:09.238Z,27.95
2022-12-14T22:32:38.273Z,33.63
2022-12-14T22:35:05.482Z,33.63
2022-12-14T22:37:35.796Z,34.15
2022-12-14T22:40:04.152Z,33.75
2022-12-14T22:42:38.116Z,31.45
2022-12-14T22:45:05.591Z,31.67
2022-12-14T22:47:32.594Z,31.02
2022-12-14T22:50:01.305Z,31.92
2022-12-14T22:52:29.147Z,31.10
2022-12-14T22:54:57.856Z,32.35
2022-12-14T22:57:33.090Z,29.80
2022-12-14T23:00:07.545Z,29.10
2022-12-14T23:02:34.618Z,31.38
2022-12-14T23:05:01.735Z,30.27
2022-12-14T23:07:28.664Z,27.95
2022-12-14T23:10:14.579Z,30.15
2022-12-14T23:13:00.571Z,30.98
2022-12-14T23:15:51.868Z,28.52
2022-12-14T23:18:37.299Z,29.08
2022-12-14T23:21:30.468Z,39.45
2022-12-14T23:24:18.595Z,28.77
2022-12-14T23:27:09.860Z,31.02
2022-12-14T23:29:57.685Z,29.70
2022-12-14T23:32:48.980Z,29.75
2022-12-14T23:35:35.669Z,29.42
2022-12-14T23:38:24.894Z,30.20
2022-12-14T23:41:16.841Z,27.95
2022-12-14T23:44:07.911Z,29.45
2022-12-14T23:46:55.455Z,28.85
2022-12-14T23:49:42.189Z,28.08
2022-12-14T23:52:28.681Z,30.02
2022-12-14T23:55:14.066Z,27.48
2022-12-14T23:57:59.688Z,28.30
